sensor_id;sensor_type;location;lat;lon;timestamp;temperature;humidity
69393;SHT31;56582;44.624;20.378;2023-04-15T00:01:23;7.67;78.11
69393;SHT31;56582;44.624;20.378;2023-04-15T00:03:53;7.77;78.01
69393;SHT31;56582;44.624;20.378;2023-04-15T00:06:20;7.67;77.87
69393;SHT31;56582;44.624;20.378;2023-04-15T00:08:46;7.67;78.07
69393;SHT31;56582;44.624;20.378;2023-04-15T00:11:12;7.73;77.98
69393;SHT31;56582;44.624;20.378;2023-04-15T00:13:38;7.67;78.01
69393;SHT31;56582;44.624;20.378;2023-04-15T00:16:05;7.75;77.62
69393;SHT31;56582;44.624;20.378;2023-04-15T00:18:30;7.95;77.25
69393;SHT31;56582;44.624;20.378;2023-04-15T00:20:57;8.16;76.91
69393;SHT31;56582;44.624;20.378;2023-04-15T00:23:23;8.12;76.28
69393;SHT31;56582;44.624;20.378;2023-04-15T00:25:48;7.88;76.85
69393;SHT31;56582;44.624;20.378;2023-04-15T00:28:14;7.75;77.18
69393;SHT31;56582;44.624;20.378;2023-04-15T00:30:39;7.75;77.13
69393;SHT31;56582;44.624;20.378;2023-04-15T00:33:04;7.82;76.99
69393;SHT31;56582;44.624;20.378;2023-04-15T00:35:30;7.61;77.18
69393;SHT31;56582;44.624;20.378;2023-04-15T00:37:57;7.70;76.77
69393;SHT31;56582;44.624;20.378;2023-04-15T00:40:23;7.86;76.93
69393;SHT31;56582;44.624;20.378;2023-04-15T00:42:49;7.74;76.69
69393;SHT31;56582;44.624;20.378;2023-04-15T00:45:14;7.60;76.81
69393;SHT31;56582;44.624;20.378;2023-04-15T00:47:40;7.58;76.93
69393;SHT31;56582;44.624;20.378;2023-04-15T00:50:07;7.68;76.93
69393;SHT31;56582;44.624;20.378;2023-04-15T00:52:33;7.64;76.58
69393;SHT31;56582;44.624;20.378;2023-04-15T00:54:59;7.60;76.70
69393;SHT31;56582;44.624;20.378;2023-04-15T00:57:25;7.81;76.66
69393;SHT31;56582;44.624;20.378;2023-04-15T00:59:51;7.86;76.11
69393;SHT31;56582;44.624;20.378;2023-04-15T01:02:18;7.81;75.90
69393;SHT31;56582;44.624;20.378;2023-04-15T01:04:47;7.78;75.87
69393;SHT31;56582;44.624;20.378;2023-04-15T01:07:13;7.51;76.38
69393;SHT31;56582;44.624;20.378;2023-04-15T01:09:39;7.48;76.94
69393;SHT31;56582;44.624;20.378;2023-04-15T01:12:05;7.57;76.81
69393;SHT31;56582;44.624;20.378;2023-04-15T01:14:32;7.64;76.37
69393;SHT31;56582;44.624;20.378;2023-04-15T01:16:58;7.64;76.14
69393;SHT31;56582;44.624;20.378;2023-04-15T01:19:23;7.54;76.23
69393;SHT31;56582;44.624;20.378;2023-04-15T01:21:48;7.58;76.34
69393;SHT31;56582;44.624;20.378;2023-04-15T01:24:17;7.48;76.30
69393;SHT31;56582;44.624;20.378;2023-04-15T01:26:42;7.42;76.52
69393;SHT31;56582;44.624;20.378;2023-04-15T01:29:09;7.42;76.37
69393;SHT31;56582;44.624;20.378;2023-04-15T01:31:34;7.46;76.31
69393;SHT31;56582;44.624;20.378;2023-04-15T01:34:00;7.44;76.44
69393;SHT31;56582;44.624;20.378;2023-04-15T01:36:26;7.37;76.72
69393;SHT31;56582;44.624;20.378;2023-04-15T01:38:52;7.43;76.83
69393;SHT31;56582;44.624;20.378;2023-04-15T01:41:24;7.44;76.83
69393;SHT31;56582;44.624;20.378;2023-04-15T01:43:50;7.47;76.62
69393;SHT31;56582;44.624;20.378;2023-04-15T01:46:16;7.53;77.28
69393;SHT31;56582;44.624;20.378;2023-04-15T01:48:42;7.82;80.38
69393;SHT31;56582;44.624;20.378;2023-04-15T01:51:07;8.33;90.40
69393;SHT31;56582;44.624;20.378;2023-04-15T01:53:33;8.67;91.96
69393;SHT31;56582;44.624;20.378;2023-04-15T01:55:58;9.08;93.00
69393;SHT31;56582;44.624;20.378;2023-04-15T01:58:24;9.43;92.86
69393;SHT31;56582;44.624;20.378;2023-04-15T02:00:49;9.63;91.65
69393;SHT31;56582;44.624;20.378;2023-04-15T02:03:16;9.87;91.91
69393;SHT31;56582;44.624;20.378;2023-04-15T02:05:42;9.97;91.88
69393;SHT31;56582;44.624;20.378;2023-04-15T02:08:08;9.90;89.77
69393;SHT31;56582;44.624;20.378;2023-04-15T02:10:33;9.87;89.01
69393;SHT31;56582;44.624;20.378;2023-04-15T02:12:59;9.66;88.07
69393;SHT31;56582;44.624;20.378;2023-04-15T02:15:24;9.88;90.45
69393;SHT31;56582;44.624;20.378;2023-04-15T02:17:50;9.35;81.38
69393;SHT31;56582;44.624;20.378;2023-04-15T02:20:18;9.70;91.30
69393;SHT31;56582;44.624;20.378;2023-04-15T02:22:45;9.97;91.74
69393;SHT31;56582;44.624;20.378;2023-04-15T02:25:12;9.80;83.45
69393;SHT31;56582;44.624;20.378;2023-04-15T02:27:38;10.04;87.95
69393;SHT31;56582;44.624;20.378;2023-04-15T02:30:04;10.07;89.77
69393;SHT31;56582;44.624;20.378;2023-04-15T02:32:29;10.11;84.90
69393;SHT31;56582;44.624;20.378;2023-04-15T02:34:55;10.32;88.70
69393;SHT31;56582;44.624;20.378;2023-04-15T02:37:21;10.41;87.56
69393;SHT31;56582;44.624;20.378;2023-04-15T02:39:47;10.27;88.49
69393;SHT31;56582;44.624;20.378;2023-04-15T02:42:12;10.34;85.41
69393;SHT31;56582;44.624;20.378;2023-04-15T02:44:38;10.10;84.91
69393;SHT31;56582;44.624;20.378;2023-04-15T02:47:03;10.14;88.04
69393;SHT31;56582;44.624;20.378;2023-04-15T02:49:31;10.55;90.80
69393;SHT31;56582;44.624;20.378;2023-04-15T02:51:57;10.55;84.76
69393;SHT31;56582;44.624;20.378;2023-04-15T02:54:25;10.69;88.56
69393;SHT31;56582;44.624;20.378;2023-04-15T02:56:52;10.84;89.73
69393;SHT31;56582;44.624;20.378;2023-04-15T02:59:20;10.73;81.01
69393;SHT31;56582;44.624;20.378;2023-04-15T03:01:45;10.93;86.27
69393;SHT31;56582;44.624;20.378;2023-04-15T03:04:11;11.14;88.31
69393;SHT31;56582;44.624;20.378;2023-04-15T03:06:37;10.95;78.79
69393;SHT31;56582;44.624;20.378;2023-04-15T03:09:03;10.86;85.41
69393;SHT31;56582;44.624;20.378;2023-04-15T03:11:28;10.96;87.74
69393;SHT31;56582;44.624;20.378;2023-04-15T03:13:54;10.76;82.46
69393;SHT31;56582;44.624;20.378;2023-04-15T03:16:19;10.97;85.34
69393;SHT31;56582;44.624;20.378;2023-04-15T03:18:45;11.08;88.23
69393;SHT31;56582;44.624;20.378;2023-04-15T03:21:11;11.11;86.56
69393;SHT31;56582;44.624;20.378;2023-04-15T03:23:36;11.13;86.91
69393;SHT31;56582;44.624;20.378;2023-04-15T03:26:02;11.24;87.79
69393;SHT31;56582;44.624;20.378;2023-04-15T03:28:28;11.62;86.57
69393;SHT31;56582;44.624;20.378;2023-04-15T03:30:54;11.58;86.08
69393;SHT31;56582;44.624;20.378;2023-04-15T03:33:19;11.68;83.87
69393;SHT31;56582;44.624;20.378;2023-04-15T03:35:45;11.66;85.21
69393;SHT31;56582;44.624;20.378;2023-04-15T03:38:10;11.76;84.54
69393;SHT31;56582;44.624;20.378;2023-04-15T03:40:37;11.75;83.09
69393;SHT31;56582;44.624;20.378;2023-04-15T03:43:02;11.61;84.45
69393;SHT31;56582;44.624;20.378;2023-04-15T03:45:28;11.65;86.39
69393;SHT31;56582;44.624;20.378;2023-04-15T03:47:53;11.74;85.70
69393;SHT31;56582;44.624;20.378;2023-04-15T03:50:18;11.83;85.41
69393;SHT31;56582;44.624;20.378;2023-04-15T03:52:44;11.89;84.87
69393;SHT31;56582;44.624;20.378;2023-04-15T03:55:10;11.95;84.20
69393;SHT31;56582;44.624;20.378;2023-04-15T03:57:36;12.06;84.58
69393;SHT31;56582;44.624;20.378;2023-04-15T04:00:04;12.09;84.48
69393;SHT31;56582;44.624;20.378;2023-04-15T04:02:30;12.02;83.69
69393;SHT31;56582;44.624;20.378;2023-04-15T04:04:55;11.99;83.76
69393;SHT31;56582;44.624;20.378;2023-04-15T04:07:22;11.95;83.42
69393;SHT31;56582;44.624;20.378;2023-04-15T04:09:48;11.87;83.39
69393;SHT31;56582;44.624;20.378;2023-04-15T04:12:13;11.76;81.31
69393;SHT31;56582;44.624;20.378;2023-04-15T04:14:39;11.65;84.25
69393;SHT31;56582;44.624;20.378;2023-04-15T04:17:04;11.54;83.27
69393;SHT31;56582;44.624;20.378;2023-04-15T04:19:30;11.46;85.28
69393;SHT31;56582;44.624;20.378;2023-04-15T04:21:55;11.38;82.04
69393;SHT31;56582;44.624;20.378;2023-04-15T04:24:21;11.46;84.11
69393;SHT31;56582;44.624;20.378;2023-04-15T04:26:46;11.58;84.64
69393;SHT31;56582;44.624;20.378;2023-04-15T04:29:12;11.65;84.36
69393;SHT31;56582;44.624;20.378;2023-04-15T04:31:37;11.72;83.08
69393;SHT31;56582;44.624;20.378;2023-04-15T04:34:02;11.81;83.84
69393;SHT31;56582;44.624;20.378;2023-04-15T04:36:28;11.86;83.34
69393;SHT31;56582;44.624;20.378;2023-04-15T04:38:53;11.87;79.19
69393;SHT31;56582;44.624;20.378;2023-04-15T04:41:19;11.62;79.36
69393;SHT31;56582;44.624;20.378;2023-04-15T04:43:44;11.57;81.39
69393;SHT31;56582;44.624;20.378;2023-04-15T04:46:10;11.50;81.72
69393;SHT31;56582;44.624;20.378;2023-04-15T04:48:36;11.52;82.26
69393;SHT31;56582;44.624;20.378;2023-04-15T04:51:01;11.23;73.49
69393;SHT31;56582;44.624;20.378;2023-04-15T04:53:27;10.72;71.32
69393;SHT31;56582;44.624;20.378;2023-04-15T04:55:52;10.48;67.68
69393;SHT31;56582;44.624;20.378;2023-04-15T04:58:17;9.98;69.18
69393;SHT31;56582;44.624;20.378;2023-04-15T05:00:43;9.73;69.87
69393;SHT31;56582;44.624;20.378;2023-04-15T05:03:08;9.53;70.33
69393;SHT31;56582;44.624;20.378;2023-04-15T05:05:34;10.11;85.27
69393;SHT31;56582;44.624;20.378;2023-04-15T05:08:01;10.86;85.79
69393;SHT31;56582;44.624;20.378;2023-04-15T05:10:26;11.50;84.61
69393;SHT31;56582;44.624;20.378;2023-04-15T05:12:52;11.97;82.50
69393;SHT31;56582;44.624;20.378;2023-04-15T05:15:17;11.85;72.12
69393;SHT31;56582;44.624;20.378;2023-04-15T05:17:43;11.58;71.32
69393;SHT31;56582;44.624;20.378;2023-04-15T05:20:09;11.21;67.09
69393;SHT31;56582;44.624;20.378;2023-04-15T05:22:34;10.90;67.29
69393;SHT31;56582;44.624;20.378;2023-04-15T05:25:00;10.59;69.02
69393;SHT31;56582;44.624;20.378;2023-04-15T05:27:25;10.34;70.67
69393;SHT31;56582;44.624;20.378;2023-04-15T05:29:51;10.38;69.74
69393;SHT31;56582;44.624;20.378;2023-04-15T05:32:16;10.34;70.84
69393;SHT31;56582;44.624;20.378;2023-04-15T05:34:42;10.04;71.11
69393;SHT31;56582;44.624;20.378;2023-04-15T05:37:07;9.83;72.16
69393;SHT31;56582;44.624;20.378;2023-04-15T05:39:32;9.83;72.45
69393;SHT31;56582;44.624;20.378;2023-04-15T05:41:58;9.84;75.70
69393;SHT31;56582;44.624;20.378;2023-04-15T05:44:24;9.66;73.34
69393;SHT31;56582;44.624;20.378;2023-04-15T05:46:50;9.53;74.85
69393;SHT31;56582;44.624;20.378;2023-04-15T05:49:15;9.44;76.31
69393;SHT31;56582;44.624;20.378;2023-04-15T05:51:41;9.44;77.12
69393;SHT31;56582;44.624;20.378;2023-04-15T05:54:06;9.74;75.90
69393;SHT31;56582;44.624;20.378;2023-04-15T05:56:31;9.97;75.63
69393;SHT31;56582;44.624;20.378;2023-04-15T05:58:57;10.24;74.89
69393;SHT31;56582;44.624;20.378;2023-04-15T06:01:22;10.59;73.50
69393;SHT31;56582;44.624;20.378;2023-04-15T06:03:48;10.86;73.52
69393;SHT31;56582;44.624;20.378;2023-04-15T06:06:14;10.93;73.34
69393;SHT31;56582;44.624;20.378;2023-04-15T06:08:40;11.11;72.83
69393;SHT31;56582;44.624;20.378;2023-04-15T06:11:08;11.20;73.35
69393;SHT31;56582;44.624;20.378;2023-04-15T06:13:33;11.27;72.77
69393;SHT31;56582;44.624;20.378;2023-04-15T06:15:59;11.48;71.52
69393;SHT31;56582;44.624;20.378;2023-04-15T06:18:24;11.57;72.97
69393;SHT31;56582;44.624;20.378;2023-04-15T06:20:50;11.64;71.83
69393;SHT31;56582;44.624;20.378;2023-04-15T06:23:15;11.83;71.19
69393;SHT31;56582;44.624;20.378;2023-04-15T06:25:41;12.03;71.09
69393;SHT31;56582;44.624;20.378;2023-04-15T06:28:06;12.12;69.84
69393;SHT31;56582;44.624;20.378;2023-04-15T06:30:32;11.90;70.03
69393;SHT31;56582;44.624;20.378;2023-04-15T06:32:57;12.02;71.58
69393;SHT31;56582;44.624;20.378;2023-04-15T06:35:23;12.05;71.96
69393;SHT31;56582;44.624;20.378;2023-04-15T06:37:48;12.09;70.31
69393;SHT31;56582;44.624;20.378;2023-04-15T06:40:14;12.34;70.30
69393;SHT31;56582;44.624;20.378;2023-04-15T06:42:39;12.44;70.50
69393;SHT31;56582;44.624;20.378;2023-04-15T06:45:06;12.61;70.50
69393;SHT31;56582;44.624;20.378;2023-04-15T06:47:32;12.88;69.12
69393;SHT31;56582;44.624;20.378;2023-04-15T06:49:58;13.03;68.51
69393;SHT31;56582;44.624;20.378;2023-04-15T06:52:23;13.20;69.55
69393;SHT31;56582;44.624;20.378;2023-04-15T06:54:52;13.43;68.24
69393;SHT31;56582;44.624;20.378;2023-04-15T06:57:17;13.50;65.75
69393;SHT31;56582;44.624;20.378;2023-04-15T06:59:43;13.27;64.47
69393;SHT31;56582;44.624;20.378;2023-04-15T07:02:11;13.35;65.17
69393;SHT31;56582;44.624;20.378;2023-04-15T07:04:37;13.44;66.27
69393;SHT31;56582;44.624;20.378;2023-04-15T07:07:02;13.75;63.88
69393;SHT31;56582;44.624;20.378;2023-04-15T07:09:28;13.87;67.63
69393;SHT31;56582;44.624;20.378;2023-04-15T07:11:54;13.77;64.49
69393;SHT31;56582;44.624;20.378;2023-04-15T07:14:19;13.97;64.80
69393;SHT31;56582;44.624;20.378;2023-04-15T07:16:44;14.14;66.61
69393;SHT31;56582;44.624;20.378;2023-04-15T07:19:10;14.32;64.85
69393;SHT31;56582;44.624;20.378;2023-04-15T07:21:36;14.36;61.58
69393;SHT31;56582;44.624;20.378;2023-04-15T07:24:01;14.49;62.97
69393;SHT31;56582;44.624;20.378;2023-04-15T07:26:27;14.60;62.28
69393;SHT31;56582;44.624;20.378;2023-04-15T07:28:52;14.48;63.21
69393;SHT31;56582;44.624;20.378;2023-04-15T07:31:18;14.73;61.74
69393;SHT31;56582;44.624;20.378;2023-04-15T07:33:43;14.66;61.76
69393;SHT31;56582;44.624;20.378;2023-04-15T07:36:08;14.52;62.96
69393;SHT31;56582;44.624;20.378;2023-04-15T07:38:34;14.53;62.25
69393;SHT31;56582;44.624;20.378;2023-04-15T07:41:00;14.83;64.99
69393;SHT31;56582;44.624;20.378;2023-04-15T07:43:25;15.08;60.73
69393;SHT31;56582;44.624;20.378;2023-04-15T07:45:51;15.28;60.73
69393;SHT31;56582;44.624;20.378;2023-04-15T07:48:17;15.25;59.74
69393;SHT31;56582;44.624;20.378;2023-04-15T07:50:42;15.15;59.17
69393;SHT31;56582;44.624;20.378;2023-04-15T07:53:08;15.35;59.79
69393;SHT31;56582;44.624;20.378;2023-04-15T07:55:33;15.48;62.44
69393;SHT31;56582;44.624;20.378;2023-04-15T07:57:59;15.56;59.68
69393;SHT31;56582;44.624;20.378;2023-04-15T08:00:24;15.72;56.47
69393;SHT31;56582;44.624;20.378;2023-04-15T08:02:51;15.79;58.16
69393;SHT31;56582;44.624;20.378;2023-04-15T08:05:18;15.54;59.83
69393;SHT31;56582;44.624;20.378;2023-04-15T08:07:43;15.73;59.55
69393;SHT31;56582;44.624;20.378;2023-04-15T08:10:09;15.90;60.23
69393;SHT31;56582;44.624;20.378;2023-04-15T08:12:36;16.06;57.35
69393;SHT31;56582;44.624;20.378;2023-04-15T08:15:01;15.99;55.59
69393;SHT31;56582;44.624;20.378;2023-04-15T08:17:27;16.24;57.53
69393;SHT31;56582;44.624;20.378;2023-04-15T08:19:52;16.23;56.12
69393;SHT31;56582;44.624;20.378;2023-04-15T08:22:18;16.13;56.76
69393;SHT31;56582;44.624;20.378;2023-04-15T08:24:44;16.50;57.39
69393;SHT31;56582;44.624;20.378;2023-04-15T08:27:09;16.57;56.46
69393;SHT31;56582;44.624;20.378;2023-04-15T08:29:35;16.44;54.51
69393;SHT31;56582;44.624;20.378;2023-04-15T08:32:01;16.60;56.71
69393;SHT31;56582;44.624;20.378;2023-04-15T08:34:27;16.62;53.07
69393;SHT31;56582;44.624;20.378;2023-04-15T08:36:52;16.41;55.36
69393;SHT31;56582;44.624;20.378;2023-04-15T08:39:27;16.31;54.05
69393;SHT31;56582;44.624;20.378;2023-04-15T08:41:59;16.52;54.69
69393;SHT31;56582;44.624;20.378;2023-04-15T08:44:28;16.75;55.60
69393;SHT31;56582;44.624;20.378;2023-04-15T08:46:55;16.92;54.60
69393;SHT31;56582;44.624;20.378;2023-04-15T08:49:24;17.00;55.24
69393;SHT31;56582;44.624;20.378;2023-04-15T08:52:00;17.20;54.99
69393;SHT31;56582;44.624;20.378;2023-04-15T08:54:46;17.23;55.14
69393;SHT31;56582;44.624;20.378;2023-04-15T08:57:14;17.16;53.59
69393;SHT31;56582;44.624;20.378;2023-04-15T08:59:52;17.34;54.89
69393;SHT31;56582;44.624;20.378;2023-04-15T09:02:21;17.41;50.04
69393;SHT31;56582;44.624;20.378;2023-04-15T09:05:07;17.58;50.97
69393;SHT31;56582;44.624;20.378;2023-04-15T09:07:33;17.60;51.36
69393;SHT31;56582;44.624;20.378;2023-04-15T09:10:01;17.57;53.68
69393;SHT31;56582;44.624;20.378;2023-04-15T09:12:27;17.15;50.97
69393;SHT31;56582;44.624;20.378;2023-04-15T09:14:52;16.96;52.46
69393;SHT31;56582;44.624;20.378;2023-04-15T09:17:19;16.82;50.54
69393;SHT31;56582;44.624;20.378;2023-04-15T09:19:45;17.20;55.85
69393;SHT31;56582;44.624;20.378;2023-04-15T09:22:11;17.51;57.22
69393;SHT31;56582;44.624;20.378;2023-04-15T09:24:38;17.18;50.20
69393;SHT31;56582;44.624;20.378;2023-04-15T09:27:06;17.18;55.56
69393;SHT31;56582;44.624;20.378;2023-04-15T09:29:32;16.85;49.02
69393;SHT31;56582;44.624;20.378;2023-04-15T09:34:36;17.18;56.06
69393;SHT31;56582;44.624;20.378;2023-04-15T09:37:02;17.60;53.78
69393;SHT31;56582;44.624;20.378;2023-04-15T09:39:44;17.94;54.90
69393;SHT31;56582;44.624;20.378;2023-04-15T09:42:10;17.57;47.95
69393;SHT31;56582;44.624;20.378;2023-04-15T09:44:36;17.73;55.27
69393;SHT31;56582;44.624;20.378;2023-04-15T09:47:01;17.51;52.24
69393;SHT31;56582;44.624;20.378;2023-04-15T09:49:27;17.53;50.46
69393;SHT31;56582;44.624;20.378;2023-04-15T09:52:00;17.77;56.67
69393;SHT31;56582;44.624;20.378;2023-04-15T09:54:39;17.99;52.81
69393;SHT31;56582;44.624;20.378;2023-04-15T09:57:08;18.47;57.14
69393;SHT31;56582;44.624;20.378;2023-04-15T09:59:37;18.43;52.18
69393;SHT31;56582;44.624;20.378;2023-04-15T10:02:05;18.21;50.87
69393;SHT31;56582;44.624;20.378;2023-04-15T10:04:54;18.36;51.11
69393;SHT31;56582;44.624;20.378;2023-04-15T10:07:47;17.46;52.22
69393;SHT31;56582;44.624;20.378;2023-04-15T10:10:13;17.20;52.81
69393;SHT31;56582;44.624;20.378;2023-04-15T10:12:40;17.10;49.28
69393;SHT31;56582;44.624;20.378;2023-04-15T10:15:13;17.26;50.76
69393;SHT31;56582;44.624;20.378;2023-04-15T10:17:43;17.22;50.57
69393;SHT31;56582;44.624;20.378;2023-04-15T10:20:09;16.82;52.27
69393;SHT31;56582;44.624;20.378;2023-04-15T10:22:36;16.92;52.82
69393;SHT31;56582;44.624;20.378;2023-04-15T10:25:02;16.76;52.05
69393;SHT31;56582;44.624;20.378;2023-04-15T10:27:28;16.85;53.30
69393;SHT31;56582;44.624;20.378;2023-04-15T10:29:55;16.98;54.93
69393;SHT31;56582;44.624;20.378;2023-04-15T10:32:23;17.24;56.80
69393;SHT31;56582;44.624;20.378;2023-04-15T10:34:49;17.36;53.14
69393;SHT31;56582;44.624;20.378;2023-04-15T10:37:42;17.40;56.23
69393;SHT31;56582;44.624;20.378;2023-04-15T10:40:29;17.64;55.92
69393;SHT31;56582;44.624;20.378;2023-04-15T10:43:01;17.10;54.04
69393;SHT31;56582;44.624;20.378;2023-04-15T10:45:34;17.53;55.48
69393;SHT31;56582;44.624;20.378;2023-04-15T10:48:05;17.57;54.38
69393;SHT31;56582;44.624;20.378;2023-04-15T10:50:32;17.58;58.07
69393;SHT31;56582;44.624;20.378;2023-04-15T10:53:02;17.92;53.74
69393;SHT31;56582;44.624;20.378;2023-04-15T10:55:31;17.78;51.67
69393;SHT31;56582;44.624;20.378;2023-04-15T10:58:01;17.84;54.60
69393;SHT31;56582;44.624;20.378;2023-04-15T11:00:30;17.64;53.36
69393;SHT31;56582;44.624;20.378;2023-04-15T11:03:07;17.74;53.19
69393;SHT31;56582;44.624;20.378;2023-04-15T11:05:53;17.89;54.56
69393;SHT31;56582;44.624;20.378;2023-04-15T11:08:58;18.04;50.21
69393;SHT31;56582;44.624;20.378;2023-04-15T11:14:32;18.66;50.89
69393;SHT31;56582;44.624;20.378;2023-04-15T11:16:58;18.29;46.10
69393;SHT31;56582;44.624;20.378;2023-04-15T11:19:23;18.60;51.31
69393;SHT31;56582;44.624;20.378;2023-04-15T11:21:48;18.91;50.32
69393;SHT31;56582;44.624;20.378;2023-04-15T11:24:31;19.18;47.88
69393;SHT31;56582;44.624;20.378;2023-04-15T11:26:57;18.97;46.38
69393;SHT31;56582;44.624;20.378;2023-04-15T11:29:30;18.84;48.05
69393;SHT31;56582;44.624;20.378;2023-04-15T11:32:08;18.95;51.20
69393;SHT31;56582;44.624;20.378;2023-04-15T11:34:44;19.14;51.64
69393;SHT31;56582;44.624;20.378;2023-04-15T11:37:13;19.29;51.38
69393;SHT31;56582;44.624;20.378;2023-04-15T11:39:38;19.42;52.37
69393;SHT31;56582;44.624;20.378;2023-04-15T11:42:15;19.28;50.49
69393;SHT31;56582;44.624;20.378;2023-04-15T11:44:41;19.16;50.73
69393;SHT31;56582;44.624;20.378;2023-04-15T11:47:23;19.07;52.88
69393;SHT31;56582;44.624;20.378;2023-04-15T11:49:49;18.94;49.01
69393;SHT31;56582;44.624;20.378;2023-04-15T11:52:17;19.21;52.22
69393;SHT31;56582;44.624;20.378;2023-04-15T11:54:43;19.32;51.14
69393;SHT31;56582;44.624;20.378;2023-04-15T11:57:08;18.87;43.56
69393;SHT31;56582;44.624;20.378;2023-04-15T11:59:43;19.11;46.17
69393;SHT31;56582;44.624;20.378;2023-04-15T12:02:12;19.28;49.21
69393;SHT31;56582;44.624;20.378;2023-04-15T12:04:38;19.63;48.84
69393;SHT31;56582;44.624;20.378;2023-04-15T12:07:04;19.49;45.46
69393;SHT31;56582;44.624;20.378;2023-04-15T12:09:36;19.32;46.13
69393;SHT31;56582;44.624;20.378;2023-04-15T12:12:02;19.29;50.21
69393;SHT31;56582;44.624;20.378;2023-04-15T12:14:30;19.39;47.31
69393;SHT31;56582;44.624;20.378;2023-04-15T12:17:01;19.55;46.25
69393;SHT31;56582;44.624;20.378;2023-04-15T12:19:40;19.55;48.73
69393;SHT31;56582;44.624;20.378;2023-04-15T12:22:11;19.51;47.16
69393;SHT31;56582;44.624;20.378;2023-04-15T12:24:38;19.32;50.29
69393;SHT31;56582;44.624;20.378;2023-04-15T12:27:05;19.56;48.74
69393;SHT31;56582;44.624;20.378;2023-04-15T12:29:32;19.41;48.02
69393;SHT31;56582;44.624;20.378;2023-04-15T12:32:04;19.51;46.29
69393;SHT31;56582;44.624;20.378;2023-04-15T12:34:33;19.42;46.23
69393;SHT31;56582;44.624;20.378;2023-04-15T12:37:00;19.41;44.30
69393;SHT31;56582;44.624;20.378;2023-04-15T12:39:27;19.41;47.37
69393;SHT31;56582;44.624;20.378;2023-04-15T12:41:53;19.59;48.19
69393;SHT31;56582;44.624;20.378;2023-04-15T12:44:21;19.74;48.10
69393;SHT31;56582;44.624;20.378;2023-04-15T12:46:48;19.83;46.20
69393;SHT31;56582;44.624;20.378;2023-04-15T12:49:14;19.67;47.29
69393;SHT31;56582;44.624;20.378;2023-04-15T12:51:41;19.35;46.36
69393;SHT31;56582;44.624;20.378;2023-04-15T12:54:06;19.14;46.25
69393;SHT31;56582;44.624;20.378;2023-04-15T12:56:32;19.03;48.05
69393;SHT31;56582;44.624;20.378;2023-04-15T12:58:57;19.18;47.05
69393;SHT31;56582;44.624;20.378;2023-04-15T13:01:22;19.35;47.81
69393;SHT31;56582;44.624;20.378;2023-04-15T13:03:48;19.46;46.62
69393;SHT31;56582;44.624;20.378;2023-04-15T13:06:15;19.42;45.69
69393;SHT31;56582;44.624;20.378;2023-04-15T13:08:40;19.36;45.92
69393;SHT31;56582;44.624;20.378;2023-04-15T13:11:06;19.65;47.44
69393;SHT31;56582;44.624;20.378;2023-04-15T13:13:32;19.73;47.62
69393;SHT31;56582;44.624;20.378;2023-04-15T13:15:58;19.79;44.87
69393;SHT31;56582;44.624;20.378;2023-04-15T13:18:23;19.86;45.72
69393;SHT31;56582;44.624;20.378;2023-04-15T13:20:49;19.94;46.60
69393;SHT31;56582;44.624;20.378;2023-04-15T13:23:15;19.92;46.23
69393;SHT31;56582;44.624;20.378;2023-04-15T13:25:41;19.74;43.62
69393;SHT31;56582;44.624;20.378;2023-04-15T13:28:06;19.67;47.84
69393;SHT31;56582;44.624;20.378;2023-04-15T13:30:32;19.55;44.45
69393;SHT31;56582;44.624;20.378;2023-04-15T13:32:57;19.80;48.35
69393;SHT31;56582;44.624;20.378;2023-04-15T13:35:23;19.45;46.79
69393;SHT31;56582;44.624;20.378;2023-04-15T13:37:48;19.29;47.85
69393;SHT31;56582;44.624;20.378;2023-04-15T13:40:14;18.73;48.42
69393;SHT31;56582;44.624;20.378;2023-04-15T13:42:40;18.78;48.57
69393;SHT31;56582;44.624;20.378;2023-04-15T13:45:07;19.01;47.45
69393;SHT31;56582;44.624;20.378;2023-04-15T13:47:32;19.14;47.26
69393;SHT31;56582;44.624;20.378;2023-04-15T13:49:58;19.46;45.25
69393;SHT31;56582;44.624;20.378;2023-04-15T13:52:23;19.79;44.20
69393;SHT31;56582;44.624;20.378;2023-04-15T13:54:49;19.77;45.81
69393;SHT31;56582;44.624;20.378;2023-04-15T13:57:14;19.73;45.34
69393;SHT31;56582;44.624;20.378;2023-04-15T13:59:40;19.46;43.96
69393;SHT31;56582;44.624;20.378;2023-04-15T14:02:06;19.53;42.35
69393;SHT31;56582;44.624;20.378;2023-04-15T14:04:34;19.87;45.34
69393;SHT31;56582;44.624;20.378;2023-04-15T14:07:18;19.70;47.25
69393;SHT31;56582;44.624;20.378;2023-04-15T14:09:44;19.39;45.30
69393;SHT31;56582;44.624;20.378;2023-04-15T14:12:09;19.63;44.46
69393;SHT31;56582;44.624;20.378;2023-04-15T14:14:35;19.89;43.78
69393;SHT31;56582;44.624;20.378;2023-04-15T14:17:02;19.69;40.91
69393;SHT31;56582;44.624;20.378;2023-04-15T14:19:29;19.87;41.92
69393;SHT31;56582;44.624;20.378;2023-04-15T14:21:54;19.72;41.03
69393;SHT31;56582;44.624;20.378;2023-04-15T14:24:20;19.61;43.43
69393;SHT31;56582;44.624;20.378;2023-04-15T14:26:45;19.51;45.07
69393;SHT31;56582;44.624;20.378;2023-04-15T14:29:11;19.72;42.45
69393;SHT31;56582;44.624;20.378;2023-04-15T14:31:36;19.93;43.12
69393;SHT31;56582;44.624;20.378;2023-04-15T14:34:02;20.04;42.92
69393;SHT31;56582;44.624;20.378;2023-04-15T14:36:27;20.07;42.14
69393;SHT31;56582;44.624;20.378;2023-04-15T14:38:53;19.83;41.11
69393;SHT31;56582;44.624;20.378;2023-04-15T14:41:18;19.67;41.26
69393;SHT31;56582;44.624;20.378;2023-04-15T14:43:44;19.52;43.85
69393;SHT31;56582;44.624;20.378;2023-04-15T14:46:10;19.41;43.95
69393;SHT31;56582;44.624;20.378;2023-04-15T14:48:35;19.59;44.64
69393;SHT31;56582;44.624;20.378;2023-04-15T14:51:01;19.38;43.14
69393;SHT31;56582;44.624;20.378;2023-04-15T14:53:26;19.26;43.24
69393;SHT31;56582;44.624;20.378;2023-04-15T14:55:52;19.15;43.28
69393;SHT31;56582;44.624;20.378;2023-04-15T14:58:17;19.21;47.67
69393;SHT31;56582;44.624;20.378;2023-04-15T15:00:43;19.24;43.81
69393;SHT31;56582;44.624;20.378;2023-04-15T15:03:09;19.08;44.18
69393;SHT31;56582;44.624;20.378;2023-04-15T15:05:44;18.80;43.82
69393;SHT31;56582;44.624;20.378;2023-04-15T15:08:10;18.91;47.88
69393;SHT31;56582;44.624;20.378;2023-04-15T15:10:36;18.49;45.12
69393;SHT31;56582;44.624;20.378;2023-04-15T15:13:06;18.37;44.89
69393;SHT31;56582;44.624;20.378;2023-04-15T15:15:33;18.53;44.42
69393;SHT31;56582;44.624;20.378;2023-04-15T15:17:58;18.55;44.39
69393;SHT31;56582;44.624;20.378;2023-04-15T15:20:24;18.33;44.82
69393;SHT31;56582;44.624;20.378;2023-04-15T15:22:50;18.28;44.24
69393;SHT31;56582;44.624;20.378;2023-04-15T15:25:16;18.40;42.40